createdAt,value
2023-05-11T05:03:03.378Z,25.00
2023-05-11T05:04:04.377Z,25.00
2023-05-11T05:05:03.358Z,25.00
2023-05-11T05:06:04.386Z,25.00
2023-05-11T05:07:04.468Z,25.00
2023-05-11T05:08:04.414Z,25.00
2023-05-11T05:09:04.471Z,0.00
2023-05-11T05:10:03.487Z,0.00
2023-05-11T05:11:04.510Z,0.00
2023-05-11T05:12:04.513Z,0.00
2023-05-11T05:13:03.506Z,0.00
2023-05-11T05:14:04.497Z,0.00
2023-05-11T05:15:04.514Z,0.00
2023-05-11T05:16:04.556Z,0.00
2023-05-11T05:17:03.640Z,0.00
2023-05-11T05:18:04.691Z,0.00
2023-05-11T05:19:04.739Z,0.00
2023-05-11T05:20:04.748Z,0.00
2023-05-11T05:21:04.791Z,0.00
2023-05-11T05:22:04.869Z,0.00
2023-05-11T05:23:04.911Z,0.00
2023-05-11T05:24:03.980Z,0.00
2023-05-11T05:25:05.038Z,5.79
2023-05-11T05:26:04.102Z,25.00
2023-05-11T05:27:04.140Z,24.29
2023-05-11T05:28:05.177Z,26.36
2023-05-11T05:29:04.251Z,25.00
2023-05-11T05:30:05.285Z,25.00
2023-05-11T05:31:04.375Z,25.50
2023-05-11T05:32:05.381Z,26.40
2023-05-11T05:33:05.544Z,27.44
2023-05-11T05:34:04.502Z,25.00
2023-05-11T05:35:05.548Z,25.74
2023-05-11T05:36:04.601Z,25.00
2023-05-11T05:37:05.623Z,27.08
2023-05-11T05:38:05.694Z,24.98
2023-05-11T05:39:04.722Z,25.21
2023-05-11T05:40:06.187Z,25.75
2023-05-11T05:41:05.852Z,26.40
2023-05-11T05:42:05.851Z,25.41
2023-05-11T05:43:05.920Z,28.67
2023-05-11T05:44:04.955Z,25.00
2023-05-11T05:45:04.979Z,25.94
2023-05-11T05:46:06.073Z,26.33
2023-05-11T05:47:06.052Z,25.47
2023-05-11T05:48:06.245Z,26.31
2023-05-11T05:49:06.140Z,27.18
2023-05-11T05:50:06.198Z,25.64
2023-05-11T05:51:06.309Z,29.09
2023-05-11T05:52:05.299Z,26.50
2023-05-11T05:53:06.343Z,28.44
2023-05-11T05:54:05.382Z,28.00
2023-05-11T05:55:06.448Z,25.63
2023-05-11T05:56:12.783Z,26.45
2023-05-11T05:57:06.518Z,26.77
2023-05-11T05:58:06.471Z,26.86
2023-05-11T05:59:06.476Z,26.76
2023-05-11T06:00:06.470Z,23.19
2023-05-11T06:01:06.453Z,24.31
2023-05-11T06:02:05.787Z,27.57
2023-05-11T06:03:06.688Z,26.36
2023-05-11T06:04:06.644Z,25.34
2023-05-11T06:05:06.480Z,26.18
2023-05-11T06:06:05.403Z,26.42
2023-05-11T06:07:05.431Z,27.36
2023-05-11T06:08:10.505Z,28.11
2023-05-11T06:09:06.410Z,28.26
2023-05-11T06:10:05.378Z,28.31
2023-05-11T06:11:06.374Z,27.98
2023-05-11T06:12:05.371Z,28.17
2023-05-11T06:13:05.365Z,23.70
2023-05-11T06:14:05.357Z,28.53
2023-05-11T06:15:06.346Z,25.34
2023-05-11T06:16:06.359Z,28.59
2023-05-11T06:17:06.335Z,29.58
2023-05-11T06:18:05.381Z,28.81
2023-05-11T06:19:06.512Z,29.87
2023-05-11T06:20:05.512Z,30.59
2023-05-11T06:21:06.552Z,29.63
2023-05-11T06:22:06.928Z,28.71
2023-05-11T06:23:05.716Z,27.13
2023-05-11T06:24:06.737Z,31.05
2023-05-11T06:25:06.809Z,30.10
2023-05-11T06:26:06.865Z,29.21
2023-05-11T06:27:05.946Z,30.88
2023-05-11T06:28:07.007Z,30.18
2023-05-11T06:29:07.049Z,26.22
2023-05-11T06:30:07.108Z,31.05
2023-05-11T06:31:07.170Z,29.82
2023-05-11T06:32:07.331Z,29.51
2023-05-11T06:33:06.334Z,29.18
2023-05-11T06:34:07.347Z,31.81
2023-05-11T06:35:07.421Z,33.54
2023-05-11T06:36:07.485Z,30.35
2023-05-11T06:37:07.513Z,29.13
2023-05-11T06:38:07.591Z,33.69
2023-05-11T06:39:06.617Z,33.39
2023-05-11T06:40:06.685Z,32.51
2023-05-11T06:41:06.765Z,33.51
2023-05-11T06:42:07.035Z,32.97
2023-05-11T06:43:07.865Z,31.99
2023-05-11T06:44:06.910Z,34.49
2023-05-11T06:45:08.010Z,34.15
2023-05-11T06:46:07.075Z,34.08
2023-05-11T06:47:07.087Z,36.14
2023-05-11T06:48:07.162Z,39.26
2023-05-11T06:49:07.191Z,40.09
2023-05-11T06:50:08.250Z,44.50
2023-05-11T06:51:07.304Z,41.60
2023-05-11T06:52:08.782Z,43.15
2023-05-11T06:53:07.411Z,91.93
2023-05-11T06:54:07.468Z,102.94
2023-05-11T06:55:08.505Z,89.16
2023-05-11T06:56:07.571Z,80.60
2023-05-11T06:57:07.793Z,82.00
2023-05-11T06:58:07.674Z,84.37
2023-05-11T06:59:07.700Z,84.51
2023-05-11T07:00:08.754Z,82.72
2023-05-11T07:01:08.815Z,91.40
2023-05-11T07:02:08.852Z,105.03
2023-05-11T07:03:08.893Z,99.89
2023-05-11T07:04:09.001Z,100.75
2023-05-11T07:05:08.088Z,104.10
2023-05-11T07:06:09.017Z,109.46
2023-05-11T07:07:09.077Z,124.35
2023-05-11T07:08:09.101Z,126.55
2023-05-11T07:09:08.160Z,120.84
2023-05-11T07:10:09.226Z,120.44
2023-05-11T07:11:09.239Z,121.27
2023-05-11T07:12:09.308Z,120.68
2023-05-11T07:13:09.327Z,122.16
2023-05-11T07:14:08.396Z,121.12
2023-05-11T07:15:09.403Z,124.70
2023-05-11T07:16:09.445Z,127.30
2023-05-11T07:17:08.520Z,131.27
2023-05-11T07:18:09.585Z,130.73
2023-05-11T07:19:09.666Z,129.38
2023-05-11T07:20:09.649Z,130.07
2023-05-11T07:21:09.678Z,134.97
2023-05-11T07:22:08.706Z,139.18
2023-05-11T07:23:09.730Z,140.91
2023-05-11T07:24:09.786Z,143.38
2023-05-11T07:25:08.812Z,141.58
2023-05-11T07:26:09.025Z,139.54
2023-05-11T07:27:08.896Z,143.53
2023-05-11T07:28:09.933Z,145.61
2023-05-11T07:29:09.950Z,146.94
2023-05-11T07:30:08.981Z,146.67
2023-05-11T07:31:10.067Z,148.79
2023-05-11T07:32:09.048Z,147.03
2023-05-11T07:33:09.118Z,143.90
2023-05-11T07:34:10.113Z,148.58
2023-05-11T07:35:10.154Z,149.82
2023-05-11T07:36:10.172Z,148.39
2023-05-11T07:37:10.230Z,151.06
2023-05-11T07:38:10.260Z,153.33
2023-05-11T07:39:10.298Z,152.60
2023-05-11T07:40:09.343Z,155.63
2023-05-11T07:41:12.460Z,153.93
2023-05-11T07:42:10.403Z,152.00
2023-05-11T07:43:09.361Z,155.84
2023-05-11T07:44:10.370Z,159.90
2023-05-11T07:45:09.356Z,154.01
2023-05-11T07:46:09.392Z,157.22
2023-05-11T07:47:09.346Z,158.25
2023-05-11T07:48:09.390Z,156.41
2023-05-11T07:49:17.217Z,159.92
2023-05-11T07:50:10.300Z,160.08
2023-05-11T07:51:10.289Z,160.05
2023-05-11T07:52:10.334Z,161.32
2023-05-11T07:53:09.297Z,164.18
2023-05-11T07:54:10.295Z,164.85
2023-05-11T07:55:09.280Z,167.41
2023-05-11T07:56:10.265Z,171.44
2023-05-11T07:57:09.278Z,171.76
2023-05-11T07:58:09.380Z,173.05
2023-05-11T07:59:10.277Z,174.01
2023-05-11T08:00:11.018Z,172.97
2023-05-11T08:01:10.226Z,171.88
2023-05-11T08:02:11.585Z,172.94
2023-05-11T08:03:10.256Z,174.64
2023-05-11T08:04:10.204Z,173.69
2023-05-11T08:05:09.219Z,173.02
2023-05-11T08:06:09.242Z,174.94
2023-05-11T08:07:10.215Z,170.34
2023-05-11T08:08:09.207Z,174.78
2023-05-11T08:09:10.201Z,177.50
2023-05-11T08:10:10.192Z,173.79
2023-05-11T08:11:10.167Z,173.73
2023-05-11T08:12:10.156Z,171.95
2023-05-11T08:13:09.158Z,171.94
2023-05-11T08:14:09.210Z,172.26
2023-05-11T08:15:10.139Z,172.66
2023-05-11T08:16:10.193Z,174.53
2023-05-11T08:17:10.166Z,176.06
2023-05-11T08:18:09.163Z,175.35
2023-05-11T08:19:10.134Z,175.60
2023-05-11T08:20:10.101Z,175.58
2023-05-11T08:21:09.092Z,177.00
2023-05-11T08:22:10.106Z,174.79
2023-05-11T08:23:10.077Z,171.26
2023-05-11T08:24:10.088Z,169.27
2023-05-11T08:25:10.057Z,168.70
2023-05-11T08:26:10.053Z,163.73
2023-05-11T08:27:10.040Z,161.31
2023-05-11T08:28:10.049Z,160.89
2023-05-11T08:29:10.034Z,165.89
2023-05-11T08:30:11.512Z,164.01
2023-05-11T08:31:09.021Z,167.92
2023-05-11T08:32:10.135Z,165.44
2023-05-11T08:33:29.136Z,166.41
2023-05-11T08:34:18.561Z,166.55
2023-05-11T08:35:10.160Z,166.63
2023-05-11T08:36:09.974Z,166.71
2023-05-11T08:37:08.957Z,165.53
2023-05-11T08:38:09.969Z,159.87
2023-05-11T08:39:09.953Z,160.60
2023-05-11T08:40:10.470Z,158.64
2023-05-11T08:41:08.990Z,161.21
2023-05-11T08:42:10.025Z,156.58
2023-05-11T08:43:10.335Z,154.10
2023-05-11T08:44:10.080Z,154.79
2023-05-11T08:45:09.104Z,154.11
2023-05-11T08:46:09.306Z,154.23
2023-05-11T08:47:21.317Z,150.89
2023-05-11T08:48:10.203Z,151.09
2023-05-11T08:49:10.151Z,151.58
2023-05-11T08:50:09.137Z,150.86
2023-05-11T08:51:10.121Z,147.82
2023-05-11T08:52:10.109Z,148.91
2023-05-11T08:53:10.139Z,145.05
2023-05-11T08:54:10.109Z,143.53
2023-05-11T08:55:10.121Z,139.38
2023-05-11T08:56:10.124Z,133.19
2023-05-11T08:57:10.079Z,131.49
2023-05-11T08:58:10.327Z,125.23
2023-05-11T08:59:09.062Z,109.57
2023-05-11T09:00:09.059Z,108.50
2023-05-11T09:01:10.099Z,109.13
2023-05-11T09:02:10.095Z,109.19
2023-05-11T09:03:10.132Z,106.79
2023-05-11T09:04:10.045Z,102.62
2023-05-11T09:05:09.141Z,101.13
2023-05-11T09:06:10.034Z,97.95
2023-05-11T09:07:09.011Z,97.87
2023-05-11T09:08:10.006Z,94.91
2023-05-11T09:09:09.004Z,93.74
2023-05-11T09:10:09.762Z,91.85
2023-05-11T09:11:09.994Z,85.97
2023-05-11T09:12:08.989Z,85.24
2023-05-11T09:13:08.990Z,84.37
2023-05-11T09:14:09.982Z,83.52
2023-05-11T09:15:09.951Z,82.24
2023-05-11T09:16:23.351Z,84.72
2023-05-11T09:17:10.031Z,84.88
2023-05-11T09:18:10.095Z,85.33
2023-05-11T09:19:09.061Z,82.98
2023-05-11T09:20:08.959Z,83.38
2023-05-11T09:21:08.906Z,81.78
2023-05-11T09:22:09.971Z,82.59
2023-05-11T09:23:08.997Z,82.49
2023-05-11T09:24:09.923Z,81.91
2023-05-11T09:25:09.895Z,83.74
2023-05-11T09:26:09.884Z,80.68
2023-05-11T09:27:08.898Z,83.39
2023-05-11T09:28:15.769Z,80.43
2023-05-11T09:29:09.874Z,80.80
2023-05-11T09:30:09.854Z,81.46
2023-05-11T09:31:09.861Z,81.32
2023-05-11T09:32:09.842Z,81.24
2023-05-11T09:33:09.872Z,82.83
2023-05-11T09:34:08.859Z,83.22
2023-05-11T09:35:09.816Z,81.14
2023-05-11T09:36:08.818Z,77.38
2023-05-11T09:37:09.817Z,78.24
2023-05-11T09:38:08.790Z,76.19
2023-05-11T09:39:15.422Z,75.39
2023-05-11T09:40:26.402Z,75.62
2023-05-11T09:41:09.788Z,75.78
2023-05-11T09:42:09.844Z,76.18
2023-05-11T09:43:09.798Z,77.14
2023-05-11T09:44:08.757Z,73.97
2023-05-11T09:45:08.736Z,75.38
2023-05-11T09:46:09.803Z,75.56
2023-05-11T09:47:09.754Z,73.41
2023-05-11T09:48:08.769Z,72.97
2023-05-11T09:49:08.852Z,75.93
2023-05-11T09:50:09.730Z,76.27
2023-05-11T09:51:08.711Z,76.32
2023-05-11T09:52:09.733Z,75.49
2023-05-11T09:53:09.679Z,77.30
2023-05-11T09:54:08.856Z,74.30
2023-05-11T09:55:08.667Z,77.01
2023-05-11T09:56:09.682Z,79.17
2023-05-11T09:57:08.668Z,76.86
2023-05-11T09:58:08.663Z,80.41
2023-05-11T09:59:08.697Z,80.50
2023-05-11T10:00:08.628Z,80.08
2023-05-11T10:01:09.657Z,83.57
2023-05-11T10:02:09.606Z,80.63
2023-05-11T10:03:09.797Z,82.76
2023-05-11T10:04:22.165Z,80.13
2023-05-11T10:05:09.591Z,80.37
2023-05-11T10:06:09.611Z,80.45
2023-05-11T10:07:09.604Z,81.21
2023-05-11T10:08:08.677Z,83.82
2023-05-11T10:09:09.611Z,85.53
2023-05-11T10:10:08.567Z,84.37
2023-05-11T10:11:09.617Z,86.02
2023-05-11T10:12:09.607Z,85.05
2023-05-11T10:13:08.566Z,83.73
2023-05-11T10:14:09.545Z,85.56
2023-05-11T10:15:09.704Z,83.85
2023-05-11T10:16:09.761Z,83.95
2023-05-11T10:17:09.556Z,86.46
2023-05-11T10:18:08.604Z,84.02
2023-05-11T10:19:08.605Z,86.00
2023-05-11T10:20:09.518Z,81.83
2023-05-11T10:21:09.539Z,86.10
2023-05-11T10:22:09.536Z,84.49
2023-05-11T10:23:08.524Z,85.90
2023-05-11T10:24:08.518Z,85.75
2023-05-11T10:25:09.499Z,87.17
2023-05-11T10:26:09.531Z,88.14
2023-05-11T10:27:09.557Z,86.15
2023-05-11T10:28:09.613Z,87.94
2023-05-11T10:29:09.599Z,88.77
2023-05-11T10:30:08.615Z,86.30
2023-05-11T10:31:08.649Z,86.41
2023-05-11T10:32:08.766Z,88.86
2023-05-11T10:33:09.732Z,88.02
2023-05-11T10:34:08.719Z,86.66
2023-05-11T10:35:09.763Z,82.74
2023-05-11T10:36:09.774Z,86.40
2023-05-11T10:37:09.796Z,88.64
2023-05-11T10:38:09.838Z,86.14
2023-05-11T10:39:08.870Z,86.37
2023-05-11T10:40:08.863Z,86.73
2023-05-11T10:41:08.890Z,86.54
2023-05-11T10:42:09.902Z,86.30
2023-05-11T10:43:09.933Z,90.36
2023-05-11T10:44:10.474Z,85.05
2023-05-11T10:45:09.991Z,86.33
2023-05-11T10:46:09.037Z,88.54
2023-05-11T10:47:09.024Z,85.38
2023-05-11T10:48:09.070Z,84.43
2023-05-11T10:49:09.366Z,87.78
2023-05-11T10:50:09.175Z,84.49
2023-05-11T10:51:10.126Z,84.10
2023-05-11T10:52:10.142Z,89.28
2023-05-11T10:53:10.860Z,82.49
2023-05-11T10:54:10.212Z,85.22
2023-05-11T10:55:09.205Z,85.73
2023-05-11T10:56:09.244Z,85.28
2023-05-11T10:57:10.264Z,83.82
2023-05-11T10:58:10.322Z,87.48
2023-05-11T10:59:09.318Z,82.54
2023-05-11T11:00:10.439Z,83.09
2023-05-11T11:01:09.432Z,80.62
2023-05-11T11:02:09.398Z,85.53
2023-05-11T11:03:10.419Z,83.02
2023-05-11T11:04:10.435Z,87.64
2023-05-11T11:05:10.498Z,84.83
2023-05-11T11:06:09.557Z,87.68
2023-05-11T11:07:09.502Z,90.18
2023-05-11T11:08:10.556Z,88.47
2023-05-11T11:09:09.556Z,91.18
2023-05-11T11:10:10.577Z,91.43
2023-05-11T11:11:10.582Z,89.94
2023-05-11T11:12:10.621Z,90.74
2023-05-11T11:13:09.653Z,87.03
2023-05-11T11:14:09.734Z,85.33
2023-05-11T11:15:10.744Z,89.77
2023-05-11T11:16:10.759Z,86.62
2023-05-11T11:17:09.860Z,92.32
2023-05-11T11:18:09.902Z,95.45
2023-05-11T11:19:09.962Z,91.87
2023-05-11T11:20:09.895Z,95.12
2023-05-11T11:21:10.919Z,95.00
2023-05-11T11:22:09.876Z,89.83
2023-05-11T11:23:09.874Z,96.39
2023-05-11T11:24:10.906Z,91.02
2023-05-11T11:25:10.933Z,91.02
2023-05-11T11:26:10.989Z,97.76
2023-05-11T11:27:10.035Z,95.79
2023-05-11T11:28:10.014Z,95.43
2023-05-11T11:29:11.025Z,93.53
2023-05-11T11:30:11.101Z,95.10
2023-05-11T11:31:11.202Z,95.19
2023-05-11T11:32:11.071Z,96.80
2023-05-11T11:33:11.120Z,92.73
2023-05-11T11:34:11.146Z,96.43
2023-05-11T11:35:10.160Z,90.08
2023-05-11T11:36:11.188Z,95.51
2023-05-11T11:37:11.166Z,88.79
2023-05-11T11:38:11.264Z,93.58
2023-05-11T11:39:11.408Z,90.38
2023-05-11T11:40:15.231Z,93.77
2023-05-11T11:41:10.393Z,93.97
2023-05-11T11:42:10.437Z,94.18
2023-05-11T11:43:11.455Z,94.12
2023-05-11T11:44:11.452Z,91.95
2023-05-11T11:45:10.533Z,86.79
2023-05-11T11:46:11.597Z,67.92
2023-05-11T11:47:11.598Z,61.43
2023-05-11T11:48:10.669Z,26.79
2023-05-11T11:49:11.692Z,46.68
2023-05-11T11:50:10.785Z,39.99
2023-05-11T11:51:10.756Z,22.04
2023-05-11T11:52:10.760Z,28.62
2023-05-11T11:53:10.764Z,40.40
2023-05-11T11:54:10.785Z,17.78
2023-05-11T11:55:10.813Z,32.40
2023-05-11T11:56:10.825Z,43.85
2023-05-11T11:57:11.824Z,44.44
2023-05-11T11:58:11.867Z,52.72
2023-05-11T11:59:11.843Z,32.35
2023-05-11T12:00:11.965Z,49.57
2023-05-11T12:01:11.878Z,0.00
2023-05-11T12:02:11.973Z,27.51
2023-05-11T12:03:11.047Z,29.10
2023-05-11T12:04:12.281Z,6.93
2023-05-11T12:05:12.235Z,46.44
2023-05-11T12:06:12.089Z,81.11
2023-05-11T12:07:11.127Z,96.40
2023-05-11T12:08:12.161Z,105.37
2023-05-11T12:09:12.163Z,104.28
2023-05-11T12:10:11.304Z,110.29
2023-05-11T12:11:12.212Z,107.86
2023-05-11T12:12:12.252Z,108.67
2023-05-11T12:13:12.280Z,113.80
2023-05-11T12:14:11.421Z,121.22
2023-05-11T12:15:12.399Z,122.67
2023-05-11T12:16:12.589Z,127.22
2023-05-11T12:17:11.522Z,134.56
2023-05-11T12:18:12.575Z,134.56
2023-05-11T12:19:12.726Z,131.38
2023-05-11T12:20:12.665Z,133.96
2023-05-11T12:21:11.692Z,131.29
2023-05-11T12:22:11.731Z,134.57
2023-05-11T12:23:12.760Z,139.38
2023-05-11T12:24:11.779Z,139.99
2023-05-11T12:25:12.840Z,139.29
2023-05-11T12:26:11.832Z,140.10
2023-05-11T12:27:12.872Z,139.76
2023-05-11T12:28:11.881Z,136.50
2023-05-11T12:29:12.982Z,136.64
2023-05-11T12:30:12.926Z,139.40
2023-05-11T12:31:12.960Z,140.29
2023-05-11T12:32:13.100Z,138.35
2023-05-11T12:33:12.020Z,139.77
2023-05-11T12:34:13.040Z,138.72
2023-05-11T12:35:13.057Z,139.99
2023-05-11T12:36:13.088Z,146.61
2023-05-11T12:37:12.114Z,146.96
2023-05-11T12:38:12.137Z,148.06
2023-05-11T12:39:12.144Z,149.76
2023-05-11T12:40:13.162Z,148.69
2023-05-11T12:41:13.188Z,141.58
2023-05-11T12:42:13.198Z,136.79
2023-05-11T12:43:13.206Z,134.49
2023-05-11T12:44:13.251Z,139.39
2023-05-11T12:45:12.260Z,141.98
2023-05-11T12:46:13.307Z,166.02
2023-05-11T12:47:13.361Z,160.16
2023-05-11T12:48:13.376Z,149.51
2023-05-11T12:49:13.338Z,146.25
2023-05-11T12:50:13.311Z,146.55
2023-05-11T12:51:13.317Z,145.50
2023-05-11T12:52:13.344Z,149.33
2023-05-11T12:53:12.358Z,153.11
2023-05-11T12:54:13.370Z,156.34
2023-05-11T12:55:12.402Z,155.33
2023-05-11T12:56:13.406Z,152.57
2023-05-11T12:57:13.455Z,155.79
2023-05-11T12:58:13.433Z,157.96
2023-05-11T12:59:12.457Z,154.21
2023-05-11T13:00:13.471Z,155.92
2023-05-11T13:01:13.605Z,157.61
2023-05-11T13:02:12.693Z,154.22
2023-05-11T13:03:13.630Z,153.09
2023-05-11T13:04:13.527Z,149.95
2023-05-11T13:05:13.594Z,151.14
2023-05-11T13:06:12.553Z,153.23
2023-05-11T13:07:13.571Z,151.65
2023-05-11T13:08:13.563Z,149.42
2023-05-11T13:09:12.557Z,152.83
2023-05-11T13:10:13.575Z,153.27
2023-05-11T13:11:12.578Z,150.53
2023-05-11T13:12:13.615Z,151.57
2023-05-11T13:13:12.622Z,154.18
2023-05-11T13:14:12.694Z,155.38
2023-05-11T13:15:13.662Z,155.89
2023-05-11T13:16:13.735Z,158.07
2023-05-11T13:17:13.717Z,158.60
2023-05-11T13:18:15.141Z,157.63
2023-05-11T13:19:12.759Z,164.87
2023-05-11T13:20:13.687Z,166.07
2023-05-11T13:21:13.709Z,166.33
2023-05-11T13:22:12.677Z,172.07
2023-05-11T13:23:13.656Z,177.05
2023-05-11T13:24:13.656Z,179.68
2023-05-11T13:25:13.664Z,187.52
2023-05-11T13:26:13.643Z,191.18
2023-05-11T13:27:13.643Z,196.35
2023-05-11T13:28:12.626Z,197.04
2023-05-11T13:29:12.628Z,197.76
2023-05-11T13:30:12.710Z,198.58
2023-05-11T13:31:12.781Z,201.15
2023-05-11T13:32:13.670Z,205.02
2023-05-11T13:33:13.639Z,205.49
2023-05-11T13:34:12.581Z,202.32
2023-05-11T13:35:12.601Z,205.11
2023-05-11T13:36:13.581Z,199.26
2023-05-11T13:37:13.563Z,199.74
2023-05-11T13:38:12.569Z,202.97
2023-05-11T13:39:13.562Z,199.87
2023-05-11T13:40:13.541Z,199.58
2023-05-11T13:41:13.538Z,197.23
2023-05-11T13:42:13.532Z,198.54
2023-05-11T13:43:12.521Z,196.02
2023-05-11T13:44:13.520Z,193.04
2023-05-11T13:45:13.513Z,194.28
2023-05-11T13:46:13.510Z,192.94
2023-05-11T13:47:12.573Z,191.96
2023-05-11T13:48:12.499Z,191.53
2023-05-11T13:49:12.499Z,189.14
2023-05-11T13:50:13.473Z,186.51
2023-05-11T13:51:13.520Z,183.42
2023-05-11T13:52:13.464Z,183.53
2023-05-11T13:53:13.613Z,180.71
2023-05-11T13:54:12.444Z,173.68
2023-05-11T13:55:12.458Z,171.43
2023-05-11T13:56:13.435Z,168.64
2023-05-11T13:57:13.600Z,152.66
2023-05-11T13:58:12.412Z,142.01
2023-05-11T13:59:13.407Z,126.01
2023-05-11T14:00:13.463Z,127.91
2023-05-11T14:01:13.472Z,110.75
2023-05-11T14:02:13.455Z,112.93
2023-05-11T14:03:12.460Z,110.60
2023-05-11T14:04:12.356Z,114.31
2023-05-11T14:05:12.388Z,114.95
2023-05-11T14:06:12.350Z,117.50
2023-05-11T14:07:12.358Z,114.98
2023-05-11T14:08:12.339Z,113.71
2023-05-11T14:09:13.385Z,113.38
2023-05-11T14:10:13.404Z,114.84
2023-05-11T14:11:13.430Z,113.90
2023-05-11T14:12:13.473Z,116.96
2023-05-11T14:13:13.494Z,116.98
2023-05-11T14:14:13.630Z,114.74
2023-05-11T14:15:13.624Z,123.05
2023-05-11T14:16:13.644Z,125.67
2023-05-11T14:17:13.717Z,131.40
2023-05-11T14:18:13.874Z,141.05
2023-05-11T14:19:13.931Z,146.80
2023-05-11T14:20:12.983Z,156.56
2023-05-11T14:21:12.829Z,170.76
2023-05-11T14:22:12.838Z,182.14
2023-05-11T14:23:13.897Z,196.18
2023-05-11T14:24:13.951Z,205.52
2023-05-11T14:25:13.963Z,222.38
2023-05-11T14:26:13.992Z,232.90
2023-05-11T14:36:44.114Z,25.00
2023-05-11T14:37:45.153Z,25.00
2023-05-11T14:38:45.138Z,25.00
2023-05-11T14:39:44.196Z,25.00
2023-05-11T14:40:45.192Z,25.00
2023-05-11T14:41:45.232Z,25.00
2023-05-11T14:42:45.229Z,24.84
2023-05-11T14:43:44.269Z,25.00
2023-05-11T14:44:44.318Z,25.13
2023-05-11T14:45:44.374Z,25.53
2023-05-11T14:46:44.533Z,25.00
2023-05-11T14:47:44.509Z,27.12
2023-05-11T14:48:45.548Z,25.00
2023-05-11T14:49:44.584Z,25.23
2023-05-11T14:50:44.641Z,25.00
2023-05-11T14:51:45.727Z,28.67
2023-05-11T14:52:44.756Z,26.75
2023-05-11T14:53:44.794Z,26.80
2023-05-11T14:54:44.868Z,25.89
2023-05-11T14:55:44.890Z,25.55
2023-05-11T14:56:44.925Z,25.00
2023-05-11T14:57:45.971Z,26.65
2023-05-11T14:58:45.010Z,27.91
2023-05-11T14:59:58.392Z,25.18
2023-05-11T15:00:46.047Z,25.35
2023-05-11T15:01:45.227Z,24.48
2023-05-11T15:02:46.054Z,17.99
2023-05-11T15:03:46.065Z,15.53
2023-05-11T15:04:46.099Z,13.70
2023-05-11T15:05:45.004Z,26.28
2023-05-11T15:06:45.997Z,28.26
2023-05-11T15:07:46.029Z,26.62
2023-05-11T15:08:45.985Z,25.93
2023-05-11T15:09:46.016Z,28.83
2023-05-11T15:10:44.986Z,25.60
2023-05-11T15:11:45.017Z,25.00
2023-05-11T15:12:44.974Z,27.08
2023-05-11T15:13:45.958Z,27.47
2023-05-11T15:14:45.952Z,26.34
2023-05-11T15:15:44.937Z,27.73
2023-05-11T15:16:45.076Z,31.77
2023-05-11T15:17:46.032Z,30.21
2023-05-11T15:18:44.973Z,26.57
2023-05-11T15:19:44.933Z,28.38
2023-05-11T15:20:45.929Z,25.38
2023-05-11T15:21:44.941Z,27.68
2023-05-11T15:22:44.947Z,26.90
2023-05-11T15:23:45.922Z,26.02
2023-05-11T15:24:45.909Z,25.67
2023-05-11T15:25:45.890Z,28.89
2023-05-11T15:26:44.878Z,25.76
2023-05-11T15:27:45.870Z,26.28
2023-05-11T15:28:45.868Z,25.00
2023-05-11T15:29:45.869Z,27.55
2023-05-11T18:08:11.884Z,25.00
2023-05-11T18:09:12.868Z,25.00
2023-05-11T18:10:11.907Z,25.00
2023-05-11T18:11:13.050Z,25.00
2023-05-11T18:12:11.945Z,25.00
2023-05-11T18:13:11.994Z,25.00
2023-05-11T18:14:13.043Z,0.00
2023-05-11T18:15:13.053Z,0.00
2023-05-11T18:16:12.113Z,0.00
2023-05-11T18:17:13.095Z,0.00
2023-05-11T18:18:12.087Z,0.00
2023-05-11T18:19:12.186Z,0.00
2023-05-11T18:20:12.095Z,4.22
2023-05-11T18:21:12.128Z,20.13
2023-05-11T18:22:12.154Z,22.69
2023-05-11T18:23:13.214Z,25.12
2023-05-11T18:24:12.270Z,27.92
2023-05-11T18:25:13.307Z,25.90
2023-05-11T18:26:13.351Z,25.01
2023-05-11T18:27:12.429Z,25.00
2023-05-11T18:28:13.467Z,26.77
2023-05-11T18:29:13.520Z,28.17
2023-05-11T18:30:13.589Z,28.01
2023-05-11T18:31:12.705Z,25.78
2023-05-11T18:32:12.680Z,25.00
2023-05-11T18:33:12.771Z,27.22
2023-05-11T18:34:12.781Z,27.29
2023-05-11T18:35:13.832Z,25.00
2023-05-11T18:36:13.875Z,25.00
2023-05-11T18:37:13.925Z,25.72
2023-05-11T18:38:12.967Z,29.79
2023-05-11T18:39:13.995Z,25.92
2023-05-11T18:40:14.083Z,30.56
2023-05-11T18:41:13.083Z,25.00
2023-05-11T18:42:14.166Z,26.46
2023-05-11T18:43:14.202Z,28.05
2023-05-11T18:44:14.248Z,27.94
2023-05-11T18:45:14.300Z,28.70
2023-05-11T18:46:14.384Z,28.74
2023-05-11T18:47:14.465Z,26.47
2023-05-11T18:48:13.327Z,25.70
2023-05-11T18:49:14.267Z,22.68
2023-05-11T18:50:13.297Z,19.49
2023-05-11T18:51:13.269Z,26.19
2023-05-11T18:52:13.243Z,28.70
2023-05-11T18:53:14.260Z,31.26
2023-05-11T18:54:14.232Z,28.49
2023-05-11T18:55:13.231Z,27.63
2023-05-11T18:56:13.261Z,28.90
2023-05-11T18:57:13.214Z,28.42
2023-05-11T18:58:14.202Z,28.44
2023-05-11T18:59:14.187Z,28.35
2023-05-11T19:00:13.189Z,29.30
2023-05-11T19:01:14.297Z,27.62
2023-05-11T19:02:14.267Z,26.73
2023-05-11T19:03:13.470Z,26.97
2023-05-11T19:04:14.148Z,27.47
2023-05-11T19:05:13.156Z,28.81
2023-05-11T19:06:14.137Z,25.00
2023-05-11T19:07:14.198Z,29.16
2023-05-11T19:08:14.201Z,31.08
2023-05-11T19:09:13.213Z,25.06
2023-05-11T19:10:14.275Z,28.93
2023-05-11T19:11:14.415Z,26.66
2023-05-11T19:12:14.543Z,27.99
2023-05-11T19:13:14.460Z,26.63
2023-05-11T19:14:14.691Z,27.24
2023-05-11T19:15:13.525Z,27.82
2023-05-11T19:16:13.616Z,30.14
2023-05-11T19:17:13.650Z,26.60
2023-05-11T19:18:13.718Z,30.31
2023-05-11T19:19:14.720Z,29.26
2023-05-11T19:20:13.776Z,29.85
2023-05-11T19:21:14.821Z,30.10
2023-05-11T19:22:14.903Z,27.99
2023-05-11T19:23:13.937Z,29.10
2023-05-11T19:24:14.015Z,31.69
2023-05-11T19:25:15.060Z,31.24
2023-05-11T19:26:15.091Z,26.22
2023-05-11T19:27:14.140Z,31.35
2023-05-11T19:28:15.233Z,32.05
2023-05-11T19:29:15.248Z,29.41
2023-05-11T19:30:14.307Z,31.23
2023-05-11T19:31:14.388Z,29.61
2023-05-11T19:32:14.488Z,28.28
2023-05-11T19:33:15.551Z,30.02
2023-05-11T19:34:15.547Z,29.45
2023-05-11T19:35:15.619Z,30.23
2023-05-11T19:36:14.701Z,29.57
2023-05-11T19:37:15.741Z,29.49
2023-05-11T19:38:15.782Z,30.09
2023-05-11T19:39:14.857Z,29.64
2023-05-11T19:40:43.740Z,29.79
2023-05-11T19:41:15.896Z,30.00
2023-05-11T19:42:17.953Z,29.69
2023-05-11T19:43:15.892Z,30.01
2023-05-11T19:44:15.917Z,30.05
2023-05-11T19:45:15.873Z,31.04
2023-05-11T19:46:15.919Z,30.45
2023-05-11T19:47:15.863Z,27.93
2023-05-11T19:48:14.841Z,32.01
2023-05-11T19:49:15.850Z,30.34
2023-05-11T19:50:15.833Z,29.00
2023-05-11T19:51:15.846Z,29.81
2023-05-11T19:52:15.840Z,27.92
2023-05-11T19:53:14.832Z,27.86
2023-05-11T19:54:15.812Z,27.87
2023-05-11T19:55:15.855Z,29.02
2023-05-11T19:56:16.592Z,27.99
2023-05-11T19:57:15.939Z,28.20
2023-05-11T19:58:15.978Z,26.49
2023-05-11T19:59:16.068Z,27.35
2023-05-11T20:00:16.164Z,28.51
2023-05-11T20:01:16.231Z,27.87
2023-05-11T20:02:16.244Z,29.49
2023-05-11T20:03:16.368Z,29.36
2023-05-11T20:04:15.324Z,28.56
2023-05-11T20:05:15.372Z,26.94
2023-05-11T20:06:16.427Z,26.24
2023-05-11T20:07:15.474Z,25.65
2023-05-11T20:08:16.562Z,26.45
2023-05-11T20:09:15.583Z,27.77
2023-05-11T20:10:15.637Z,30.30
2023-05-11T20:11:16.665Z,29.50
2023-05-11T20:12:16.687Z,28.16
2023-05-11T20:13:16.723Z,31.12
2023-05-11T20:14:16.770Z,29.36
2023-05-11T20:15:15.826Z,26.69
2023-05-11T20:16:16.028Z,26.56
2023-05-11T20:17:15.951Z,31.29
2023-05-11T20:18:16.005Z,28.42
2023-05-11T20:19:16.156Z,27.10
2023-05-11T20:20:17.188Z,29.75
2023-05-11T20:21:16.170Z,28.10
2023-05-11T20:22:16.192Z,27.38
2023-05-11T20:23:17.226Z,29.44
2023-05-11T20:24:17.270Z,28.22
2023-05-11T20:25:18.878Z,28.63
2023-05-11T20:26:16.311Z,31.04
2023-05-11T20:27:17.309Z,29.19
2023-05-11T20:28:17.316Z,32.19
2023-05-11T20:29:16.300Z,30.98
2023-05-11T20:30:16.372Z,28.22
2023-05-11T20:31:17.324Z,27.06
2023-05-11T20:32:16.293Z,28.07
2023-05-11T20:34:16.343Z,30.75
2023-05-11T20:35:17.409Z,28.34
2023-05-11T20:36:17.249Z,31.80